Time;durP1;ratioP1;P1;durP2;ratioP2;P2;SDS_P1;SDS_P2;PMS_P1;PMS_P2;Temp;Humidity;BMP_temperature;BMP_pressure;BME280_temperature;BME280_humidity;BME280_pressure;Samples;Min_cycle;Max_cycle;Signal;HPM_P1;HPM_P2
2021/03/24 00:01:45;;;;;;;9.40;8.50;;;7.00;99.90;;;;;;4991252;28;20226;-77
2021/03/24 00:04:12;;;;;;;9.43;8.43;;;7.10;99.90;;;;;;4989964;28;20245;-77
2021/03/24 00:06:39;;;;;;;10.27;8.73;;;7.00;99.90;;;;;;4991086;28;20206;-77
2021/03/24 00:09:09;;;;;;;9.80;7.97;;;7.00;99.90;;;;;;4990830;28;20206;-77
2021/03/24 00:11:36;;;;;;;14.67;8.47;;;7.00;99.90;;;;;;4991097;28;20198;-77
2021/03/24 00:14:03;;;;;;;10.57;8.40;;;7.10;99.90;;;;;;4990988;28;20256;-76
2021/03/24 00:16:29;;;;;;;11.07;8.40;;;7.10;99.90;;;;;;4990670;28;20708;-77
2021/03/24 00:18:55;;;;;;;9.60;8.60;;;7.00;99.90;;;;;;4990731;28;20273;-77
2021/03/24 00:21:21;;;;;;;12.87;8.67;;;7.00;99.90;;;;;;4990584;28;20254;-77
2021/03/24 00:23:48;;;;;;;9.67;8.07;;;7.10;99.90;;;;;;4990767;28;20210;-77
2021/03/24 00:26:14;;;;;;;10.73;8.53;;;7.10;99.90;;;;;;4990586;28;20213;-76
2021/03/24 00:28:40;;;;;;;9.27;8.37;;;7.00;99.90;;;;;;4990523;28;20206;-76
2021/03/24 00:31:06;;;;;;;11.03;8.37;;;7.10;99.90;;;;;;4990257;28;20624;-77
2021/03/24 00:33:33;;;;;;;9.70;8.13;;;7.00;99.90;;;;;;4990620;28;20264;-76
2021/03/24 00:35:59;;;;;;;11.40;8.60;;;7.00;99.90;;;;;;4990437;28;20202;-76
2021/03/24 00:38:26;;;;;;;12.40;8.13;;;7.00;99.90;;;;;;4990212;28;20237;-77
2021/03/24 00:40:55;;;;;;;12.47;8.00;;;7.00;99.90;;;;;;4990388;28;20245;-77
2021/03/24 00:43:22;;;;;;;11.20;8.13;;;7.00;99.90;;;;;;4989826;28;20210;-77
2021/03/24 00:45:48;;;;;;;10.50;8.10;;;7.00;99.90;;;;;;4990277;28;20257;-77
2021/03/24 00:48:19;;;;;;;9.63;8.10;;;7.00;99.90;;;;;;4990144;28;20238;-77
2021/03/24 00:50:46;;;;;;;11.90;8.00;;;7.00;99.90;;;;;;4990185;28;20245;-77
2021/03/24 00:53:12;;;;;;;8.60;7.77;;;7.00;99.90;;;;;;4990117;28;20250;-77
2021/03/24 00:55:39;;;;;;;9.00;7.43;;;7.00;99.90;;;;;;4990054;28;20240;-77
2021/03/24 00:58:06;;;;;;;8.57;7.53;;;7.00;99.90;;;;;;4990344;28;20276;-76
2021/03/24 01:00:35;;;;;;;9.70;8.20;;;7.00;99.90;;;;;;4989738;28;20356;-76
2021/03/24 01:03:01;;;;;;;8.63;7.73;;;7.00;99.90;;;;;;4989467;28;20242;-76
2021/03/24 01:05:28;;;;;;;10.47;7.53;;;7.00;99.90;;;;;;4989888;28;20213;-77
2021/03/24 01:07:56;;;;;;;9.33;7.57;;;7.00;99.90;;;;;;4989901;28;20260;-76
2021/03/24 01:10:27;;;;;;;8.30;7.37;;;7.00;99.90;;;;;;4989742;28;20221;-76
2021/03/24 01:12:53;;;;;;;8.53;7.60;;;7.10;99.90;;;;;;4989845;28;20206;-76
2021/03/24 01:15:21;;;;;;;7.53;6.83;;;7.10;99.90;;;;;;4989395;28;20558;-76
2021/03/24 01:17:47;;;;;;;8.33;7.13;;;7.10;99.90;;;;;;4989747;28;20214;-77
2021/03/24 01:20:15;;;;;;;8.43;7.63;;;7.10;99.90;;;;;;4989112;28;20237;-76
2021/03/24 01:22:41;;;;;;;7.67;6.97;;;7.10;99.90;;;;;;4989530;28;20307;-77
2021/03/24 01:25:08;;;;;;;9.40;8.50;;;7.10;99.90;;;;;;4989675;28;20257;-78
2021/03/24 01:27:35;;;;;;;9.00;8.10;;;7.00;99.90;;;;;;4989531;28;20248;-78
2021/03/24 01:30:01;;;;;;;9.57;7.77;;;7.00;99.90;;;;;;4989755;28;20210;-77
2021/03/24 01:32:28;;;;;;;9.33;8.07;;;7.00;99.90;;;;;;4989437;28;20272;-78
2021/03/24 01:34:54;;;;;;;9.97;8.30;;;7.10;99.90;;;;;;4989637;28;20249;-83
2021/03/24 01:37:20;;;;;;;10.67;8.63;;;7.10;99.90;;;;;;4989296;28;20661;-79
2021/03/24 01:39:46;;;;;;;9.10;7.50;;;7.10;99.90;;;;;;4989948;28;20210;-79
2021/03/24 01:42:13;;;;;;;10.90;7.90;;;7.00;99.90;;;;;;4989341;28;20221;-79
2021/03/24 01:45:01;;;;;;;10.10;7.97;;;7.00;99.90;;;;;;4989312;28;20743;-80
2021/03/24 01:47:29;;;;;;;14.90;8.20;;;7.10;99.90;;;;;;4989381;28;20218;-79
2021/03/24 01:49:57;;;;;;;10.07;8.43;;;7.10;99.90;;;;;;4989593;28;20289;-80
2021/03/24 01:52:23;;;;;;;13.40;8.20;;;7.10;99.90;;;;;;4988831;28;20673;-78
2021/03/24 01:54:50;;;;;;;9.10;7.60;;;7.10;99.90;;;;;;4989348;28;20245;-78
2021/03/24 01:57:21;;;;;;;10.97;8.33;;;7.10;99.90;;;;;;4989004;28;20449;-77
2021/03/24 01:59:48;;;;;;;9.20;7.97;;;7.10;99.90;;;;;;4989151;28;20262;-76
2021/03/24 02:02:16;;;;;;;8.63;7.73;;;7.10;99.90;;;;;;4989107;28;20692;-75
2021/03/24 02:04:43;;;;;;;8.17;7.03;;;7.10;99.90;;;;;;4989075;28;20657;-76
2021/03/24 02:07:15;;;;;;;9.00;7.47;;;7.10;99.90;;;;;;4989153;28;20217;-77
2021/03/24 02:09:46;;;;;;;10.37;8.00;;;7.10;99.90;;;;;;4989328;28;20612;-76
2021/03/24 02:12:17;;;;;;;10.60;8.07;;;7.00;99.90;;;;;;4989274;28;20213;-78
2021/03/24 02:14:49;;;;;;;9.23;7.63;;;7.00;99.90;;;;;;4999739;28;20206;-78
2021/03/24 02:17:17;;;;;;;10.13;7.73;;;7.00;99.90;;;;;;5008981;28;20221;-78
2021/03/24 02:19:53;;;;;;;8.80;7.80;;;7.00;99.90;;;;;;5008189;28;20758;-77
2021/03/24 02:22:23;;;;;;;9.47;7.47;;;7.00;99.90;;;;;;5008440;28;20257;-76
2021/03/24 02:24:58;;;;;;;11.77;7.80;;;7.00;99.90;;;;;;5008735;28;20197;-76
2021/03/24 02:27:29;;;;;;;7.93;7.13;;;7.10;99.90;;;;;;5011188;28;20204;-78
2021/03/24 02:30:01;;;;;;;11.87;7.97;;;7.10;99.90;;;;;;5012477;28;20229;-77
2021/03/24 02:32:30;;;;;;;8.33;7.27;;;7.10;99.90;;;;;;5012625;28;20209;-77
2021/03/24 02:35:00;;;;;;;7.90;7.17;;;7.10;99.90;;;;;;5012363;28;20233;-77
2021/03/24 02:37:29;;;;;;;8.40;7.50;;;7.10;99.90;;;;;;5012341;28;20209;-78
2021/03/24 02:39:56;;;;;;;9.17;7.67;;;7.10;99.90;;;;;;5012124;28;20210;-77
2021/03/24 02:42:23;;;;;;;9.80;8.00;;;7.10;99.90;;;;;;5012175;28;20240;-78
2021/03/24 02:44:50;;;;;;;10.50;7.47;;;7.10;99.90;;;;;;5012223;28;20651;-78
2021/03/24 02:47:17;;;;;;;11.23;7.83;;;7.10;99.90;;;;;;5012002;28;20209;-77
2021/03/24 02:49:44;;;;;;;8.13;7.33;;;7.10;99.90;;;;;;5011958;28;20728;-77
2021/03/24 02:52:12;;;;;;;12.83;7.10;;;7.10;99.90;;;;;;5011829;28;20730;-78
2021/03/24 02:54:39;;;;;;;9.77;8.10;;;7.10;99.90;;;;;;5011567;28;20714;-77
2021/03/24 02:57:06;;;;;;;9.97;7.47;;;7.10;99.90;;;;;;5012046;28;20236;-77
2021/03/24 02:59:32;;;;;;;10.40;7.47;;;7.10;99.90;;;;;;5011793;28;20236;-78
2021/03/24 03:02:07;;;;;;;9.60;7.53;;;7.10;99.90;;;;;;5011977;28;20269;-77
2021/03/24 03:04:36;;;;;;;8.33;7.40;;;7.10;99.90;;;;;;5011709;28;20217;-77
2021/03/24 03:07:07;;;;;;;11.23;8.10;;;7.10;99.90;;;;;;5011693;28;20206;-77
2021/03/24 03:09:40;;;;;;;9.63;8.07;;;7.10;99.90;;;;;;5011517;28;20237;-77
2021/03/24 03:12:14;;;;;;;8.50;7.30;;;7.10;99.90;;;;;;5011253;28;20720;-77
2021/03/24 03:14:44;;;;;;;10.77;7.63;;;7.10;99.90;;;;;;5011506;28;20200;-77
2021/03/24 03:17:16;;;;;;;10.50;7.90;;;7.10;99.90;;;;;;5011481;28;20225;-77
2021/03/24 03:19:46;;;;;;;9.40;7.20;;;7.10;99.90;;;;;;5010879;28;20268;-75
2021/03/24 03:22:18;;;;;;;8.37;7.30;;;7.10;99.90;;;;;;5011252;28;20296;-75
2021/03/24 03:24:48;;;;;;;9.00;7.57;;;7.10;99.90;;;;;;5011346;28;20209;-75
2021/03/24 03:27:17;;;;;;;8.60;7.17;;;7.10;99.90;;;;;;5011392;28;20202;-75
2021/03/24 03:29:44;;;;;;;8.13;7.30;;;7.10;99.90;;;;;;5011205;28;20216;-76
2021/03/24 03:32:17;;;;;;;11.10;8.10;;;7.10;99.90;;;;;;5011024;28;20209;-76
2021/03/24 03:34:46;;;;;;;10.20;7.53;;;7.10;99.90;;;;;;5010914;28;20200;-76
2021/03/24 03:37:14;;;;;;;9.87;7.93;;;7.10;99.90;;;;;;5010928;28;20209;-76
2021/03/24 03:39:44;;;;;;;8.27;7.33;;;7.00;99.90;;;;;;5010877;28;20222;-76
2021/03/24 03:42:10;;;;;;;9.50;8.17;;;7.00;99.90;;;;;;5010823;28;20229;-76
2021/03/24 03:44:37;;;;;;;11.17;8.97;;;7.10;99.90;;;;;;5011005;28;20267;-76
2021/03/24 03:47:07;;;;;;;9.63;8.63;;;7.00;99.90;;;;;;5010709;28;20213;-76
2021/03/24 03:49:38;;;;;;;10.17;8.20;;;7.00;99.90;;;;;;5010898;28;20202;-75
2021/03/24 03:52:12;;;;;;;9.97;8.70;;;7.00;99.90;;;;;;5011153;28;20259;-76
2021/03/24 03:54:43;;;;;;;11.87;9.93;;;7.00;99.90;;;;;;5010779;28;20196;-76
2021/03/24 03:57:16;;;;;;;12.47;9.93;;;7.00;99.90;;;;;;5010605;28;20280;-75
2021/03/24 03:59:50;;;;;;;11.17;9.57;;;7.00;99.90;;;;;;5010765;28;20256;-75
2021/03/24 04:02:20;;;;;;;12.47;10.03;;;7.00;99.90;;;;;;5010243;28;20560;-75
2021/03/24 04:04:53;;;;;;;12.00;9.40;;;7.00;99.90;;;;;;5010894;28;20206;-76
2021/03/24 04:07:25;;;;;;;10.30;9.20;;;7.00;99.90;;;;;;5001561;28;20205;-79
2021/03/24 04:09:55;;;;;;;10.53;9.07;;;7.00;99.90;;;;;;5001589;28;20186;-78
2021/03/24 04:12:25;;;;;;;12.47;9.20;;;7.00;99.90;;;;;;4991221;28;20197;-75
2021/03/24 04:14:52;;;;;;;9.47;8.03;;;7.00;99.90;;;;;;4991914;28;20249;-75
2021/03/24 04:17:22;;;;;;;10.73;8.57;;;7.00;99.90;;;;;;4988402;28;20210;-75
2021/03/24 04:19:52;;;;;;;11.37;8.47;;;7.00;99.90;;;;;;4986450;28;20714;-75
2021/03/24 04:22:22;;;;;;;11.77;8.80;;;7.00;99.90;;;;;;4986985;28;20226;-75
2021/03/24 04:24:51;;;;;;;10.00;8.50;;;6.90;99.90;;;;;;4987120;28;20685;-74
2021/03/24 04:27:22;;;;;;;9.57;8.57;;;7.00;99.90;;;;;;4986739;28;20222;-75
2021/03/24 04:29:52;;;;;;;9.07;8.00;;;7.00;99.90;;;;;;4986712;28;20569;-71
2021/03/24 04:32:18;;;;;;;9.30;8.10;;;6.90;99.90;;;;;;4986612;28;20250;-70
2021/03/24 04:34:44;;;;;;;9.30;7.80;;;7.00;99.90;;;;;;4986214;28;20661;-75
2021/03/24 04:37:20;;;;;;;10.73;8.27;;;6.90;99.90;;;;;;4986422;28;20297;-74
2021/03/24 04:39:51;;;;;;;9.70;8.43;;;6.90;99.90;;;;;;4986549;28;20562;-74
2021/03/24 04:42:22;;;;;;;10.70;8.73;;;6.90;99.90;;;;;;4986333;28;20230;-75
2021/03/24 04:44:53;;;;;;;11.97;9.40;;;6.90;99.90;;;;;;4986356;28;20202;-75
2021/03/24 04:47:25;;;;;;;12.63;10.03;;;6.90;99.90;;;;;;4985989;28;20233;-75
2021/03/24 04:49:55;;;;;;;10.47;9.40;;;6.90;99.90;;;;;;4985648;28;20238;-75
2021/03/24 04:52:23;;;;;;;9.97;8.77;;;6.90;99.90;;;;;;4986189;28;20280;-74
2021/03/24 04:54:52;;;;;;;11.97;8.10;;;6.90;99.90;;;;;;4985944;28;20214;-75
2021/03/24 04:57:21;;;;;;;12.53;8.57;;;6.90;99.90;;;;;;4985829;28;20238;-75
2021/03/24 04:59:52;;;;;;;12.20;8.50;;;6.90;99.90;;;;;;4988399;28;20234;-75
2021/03/24 05:02:23;;;;;;;9.73;8.70;;;6.90;99.90;;;;;;4995750;28;20268;-75
2021/03/24 05:04:55;;;;;;;10.20;8.87;;;6.90;99.90;;;;;;5008792;28;20558;-75
2021/03/24 05:07:34;;;;;;;10.80;8.87;;;6.90;99.90;;;;;;5013205;28;20659;-75
2021/03/24 05:10:01;;;;;;;9.20;8.30;;;6.90;99.90;;;;;;5016512;28;20189;-75
2021/03/24 05:12:33;;;;;;;11.13;8.73;;;6.90;99.90;;;;;;5016299;28;20202;-75
2021/03/24 05:15:04;;;;;;;10.43;8.97;;;6.90;99.90;;;;;;5017609;28;20224;-75
2021/03/24 05:17:32;;;;;;;10.63;9.20;;;6.90;99.90;;;;;;5018337;28;20221;-75
2021/03/24 05:20:01;;;;;;;10.30;9.27;;;6.90;99.90;;;;;;5015605;28;20240;-76
2021/03/24 05:22:31;;;;;;;10.33;9.23;;;6.90;99.90;;;;;;5018343;28;20656;-75
2021/03/24 05:25:04;;;;;;;11.93;8.67;;;6.90;99.90;;;;;;5017147;28;20652;-76
2021/03/24 05:27:34;;;;;;;10.03;8.67;;;6.90;99.90;;;;;;5015863;28;20221;-75
2021/03/24 05:30:08;;;;;;;9.73;8.57;;;6.90;99.90;;;;;;5017300;28;20193;-76
2021/03/24 05:32:40;;;;;;;11.67;8.73;;;6.90;99.90;;;;;;5014184;28;20696;-76
2021/03/24 05:35:23;;;;;;;11.90;9.07;;;6.90;99.90;;;;;;5016145;28;20643;-76
2021/03/24 05:37:51;;;;;;;10.07;8.93;;;6.90;99.90;;;;;;5016144;28;20193;-76
2021/03/24 05:40:47;;;;;;;10.83;8.77;;;6.90;99.90;;;;;;5017527;28;20209;-76
2021/03/24 05:43:28;;;;;;;11.27;8.47;;;6.90;99.90;;;;;;5014000;28;20582;-76
2021/03/24 05:46:02;;;;;;;12.47;8.67;;;6.80;99.90;;;;;;5016083;28;20196;-75
2021/03/24 05:48:53;;;;;;;10.90;8.00;;;6.80;99.90;;;;;;5018263;28;20691;-75
2021/03/24 05:51:27;;;;;;;12.30;8.70;;;6.90;99.90;;;;;;5016309;28;20575;-76
2021/03/24 05:54:23;;;;;;;11.73;9.33;;;6.80;99.90;;;;;;5011557;28;20188;-76
2021/03/24 05:57:04;;;;;;;10.73;9.63;;;6.80;99.90;;;;;;5015248;28;20201;-76
2021/03/24 05:59:39;;;;;;;12.67;9.27;;;6.80;99.90;;;;;;5018435;28;20221;-76
2021/03/24 06:02:10;;;;;;;14.93;9.97;;;6.80;99.90;;;;;;5024140;28;20216;-75
2021/03/24 06:04:42;;;;;;;13.90;11.23;;;6.80;99.90;;;;;;5019095;28;20190;-75
2021/03/24 06:07:44;;;;;;;16.23;11.90;;;6.80;99.90;;;;;;5019917;28;20196;-75
2021/03/24 06:10:36;;;;;;;14.30;10.80;;;6.80;99.90;;;;;;5022438;28;20204;-75
2021/03/24 06:13:50;;;;;;;15.93;12.23;;;6.80;99.90;;;;;;5021020;28;20220;-76
2021/03/24 06:16:44;;;;;;;17.93;13.43;;;6.80;99.90;;;;;;5007613;28;20204;-75
2021/03/24 06:19:19;;;;;;;21.70;16.53;;;6.80;99.90;;;;;;5017019;28;20270;-75
2021/03/24 06:21:54;;;;;;;24.47;16.80;;;6.70;99.90;;;;;;5020225;28;20555;-75
2021/03/24 06:24:34;;;;;;;20.97;17.20;;;6.70;99.90;;;;;;5015714;28;20231;-76
2021/03/24 06:27:40;;;;;;;23.47;18.47;;;6.80;99.90;;;;;;5022173;28;20193;-70
2021/03/24 06:30:32;;;;;;;21.90;17.53;;;6.80;99.90;;;;;;5021190;28;20197;-76
2021/03/24 06:33:15;;;;;;;25.03;18.40;;;6.80;99.90;;;;;;5019392;28;20222;-75
2021/03/24 06:35:56;;;;;;;26.63;20.07;;;6.80;99.90;;;;;;5018291;28;20205;-75
2021/03/24 06:38:54;;;;;;;27.03;21.13;;;6.80;99.90;;;;;;5014576;28;20221;-75
2021/03/24 06:41:44;;;;;;;30.13;22.33;;;6.80;99.90;;;;;;5017741;28;20239;-75
2021/03/24 06:44:40;;;;;;;33.43;23.90;;;6.70;99.90;;;;;;5013245;28;20635;-75
2021/03/24 06:47:12;;;;;;;33.13;24.93;;;6.70;99.90;;;;;;5018961;28;20583;-75
2021/03/24 06:49:52;;;;;;;35.77;26.33;;;6.60;99.90;;;;;;5012004;28;20197;-74
2021/03/24 06:53:02;;;;;;;36.97;25.77;;;6.60;99.90;;;;;;5018916;28;20568;-74
2021/03/24 06:56:24;;;;;;;38.37;27.23;;;6.60;99.90;;;;;;5015226;28;20220;-74
2021/03/24 06:59:28;;;;;;;41.37;27.13;;;6.60;99.90;;;;;;5022860;28;20252;-75
2021/03/24 07:02:22;;;;;;;43.03;27.03;;;6.60;99.90;;;;;;5019725;28;20225;-74
2021/03/24 07:05:06;;;;;;;38.13;27.27;;;6.60;99.90;;;;;;5018949;28;20201;-75
2021/03/24 07:07:49;;;;;;;37.87;26.93;;;6.60;99.90;;;;;;5011216;28;20603;-75
2021/03/24 07:10:29;;;;;;;35.47;26.70;;;6.60;99.90;;;;;;5009152;28;20225;-75
2021/03/24 07:13:19;;;;;;;41.77;27.77;;;6.70;99.90;;;;;;5013691;28;20221;-75
2021/03/24 07:15:54;;;;;;;40.63;28.83;;;6.70;99.90;;;;;;5029377;28;20189;-74
2021/03/24 07:18:51;;;;;;;36.57;27.63;;;6.70;99.90;;;;;;5018219;28;20196;-73
2021/03/24 07:21:43;;;;;;;39.80;26.90;;;6.60;99.90;;;;;;5020266;28;20197;-73
2021/03/24 07:24:31;;;;;;;35.63;27.80;;;6.60;99.90;;;;;;5018585;28;20671;-73
2021/03/24 07:27:16;;;;;;;40.00;27.73;;;6.70;99.90;;;;;;5016065;28;20276;-73
2021/03/24 07:29:58;;;;;;;40.20;27.83;;;6.80;99.90;;;;;;5019906;28;20200;-72
2021/03/24 07:32:35;;;;;;;37.40;27.47;;;6.90;99.90;;;;;;5016072;28;20684;-72
2021/03/24 07:35:13;;;;;;;37.07;27.93;;;7.00;99.90;;;;;;5019141;28;20189;-73
2021/03/24 07:38:17;;;;;;;41.17;29.20;;;7.00;99.90;;;;;;5011175;28;20710;-73
2021/03/24 07:41:23;;;;;;;37.40;27.23;;;7.00;99.90;;;;;;5010636;28;20289;-73
2021/03/24 07:44:00;;;;;;;42.07;28.30;;;6.90;99.90;;;;;;5010514;28;20225;-73
2021/03/24 07:46:39;;;;;;;39.83;27.83;;;7.00;99.90;;;;;;5010549;28;20201;-73
2021/03/24 07:49:29;;;;;;;36.93;27.80;;;7.10;99.90;;;;;;5010572;28;20204;-73
2021/03/24 07:52:13;;;;;;;46.97;29.47;;;7.10;99.90;;;;;;5010446;28;20236;-74
2021/03/24 07:54:46;;;;;;;39.07;27.53;;;7.10;99.90;;;;;;5010150;28;20198;-73
2021/03/24 07:57:24;;;;;;;39.20;27.50;;;7.10;99.90;;;;;;5010221;28;20205;-73
2021/03/24 07:59:57;;;;;;;44.23;28.50;;;7.20;99.90;;;;;;5010219;28;20225;-73
2021/03/24 08:02:32;;;;;;;39.20;28.70;;;7.20;99.90;;;;;;5010208;28;20228;-73
2021/03/24 08:05:24;;;;;;;40.90;28.47;;;7.30;99.90;;;;;;5010035;28;20626;-73
2021/03/24 08:08:00;;;;;;;44.90;29.47;;;7.40;99.90;;;;;;5009848;28;20237;-73
2021/03/24 08:10:34;;;;;;;42.60;29.13;;;7.40;99.90;;;;;;5009737;28;20229;-73
2021/03/24 08:13:14;;;;;;;40.63;28.23;;;7.40;99.90;;;;;;5009420;28;20193;-73
2021/03/24 08:16:01;;;;;;;40.23;28.03;;;7.50;99.90;;;;;;5001186;28;20226;-73
2021/03/24 08:18:53;;;;;;;42.30;29.27;;;7.60;99.90;;;;;;4997846;28;20194;-73
2021/03/24 08:21:26;;;;;;;42.20;29.03;;;7.60;99.90;;;;;;5000763;28;20198;-73
2021/03/24 08:24:20;;;;;;;42.50;29.30;;;7.70;99.90;;;;;;4998253;28;20219;-73
2021/03/24 08:26:50;;;;;;;39.57;29.27;;;7.80;99.90;;;;;;4997548;28;20213;-73
2021/03/24 08:29:24;;;;;;;42.00;27.07;;;7.80;99.90;;;;;;4999234;28;20203;-71
2021/03/24 08:32:16;;;;;;;40.13;28.57;;;7.90;99.90;;;;;;5002216;28;20184;-70
2021/03/24 08:34:58;;;;;;;45.13;29.93;;;8.00;99.90;;;;;;4998593;28;20579;-74
2021/03/24 08:38:05;;;;;;;40.53;29.10;;;8.00;99.90;;;;;;5002232;28;20194;-74
2021/03/24 08:41:09;;;;;;;42.07;28.30;;;8.10;99.90;;;;;;5021372;28;20208;-74
2021/03/24 08:43:58;;;;;;;38.10;29.23;;;8.10;99.90;;;;;;5025053;28;20662;-74
2021/03/24 08:46:28;;;;;;;39.03;28.70;;;8.20;99.90;;;;;;5006506;28;20194;-74
2021/03/24 08:48:57;;;;;;;38.97;28.30;;;8.20;99.90;;;;;;5022469;28;20212;-75
2021/03/24 08:51:37;;;;;;;41.90;28.97;;;8.30;99.90;;;;;;5025754;28;20194;-74
2021/03/24 08:54:31;;;;;;;40.90;29.00;;;8.30;99.90;;;;;;4997746;28;20197;-75
2021/03/24 08:57:05;;;;;;;43.07;30.33;;;8.30;99.90;;;;;;5003300;28;20190;-74
2021/03/24 08:59:40;;;;;;;40.63;29.57;;;8.30;99.90;;;;;;5005649;28;20779;-73
2021/03/24 09:02:22;;;;;;;41.87;28.27;;;8.30;99.90;;;;;;5009696;28;20601;-74
2021/03/24 09:05:26;;;;;;;43.30;30.33;;;8.30;99.90;;;;;;5012708;28;20333;-75
2021/03/24 09:08:12;;;;;;;41.67;29.20;;;8.40;99.90;;;;;;5016191;28;20253;-74
2021/03/24 09:10:50;;;;;;;46.07;29.47;;;8.40;99.90;;;;;;5021653;28;20438;-69
2021/03/24 09:13:23;;;;;;;41.07;29.23;;;8.50;99.90;;;;;;5010004;28;20239;-70
2021/03/24 09:16:15;;;;;;;40.93;28.60;;;8.60;99.90;;;;;;5014254;28;20201;-74
2021/03/24 09:18:47;;;;;;;43.80;30.43;;;8.60;99.90;;;;;;5013381;28;20202;-75
2021/03/24 09:21:15;;;;;;;44.93;30.47;;;8.70;99.90;;;;;;5008630;28;20198;-75
2021/03/24 09:24:17;;;;;;;45.83;30.70;;;8.70;99.90;;;;;;4997349;28;20233;-74
2021/03/24 09:27:17;;;;;;;42.70;28.90;;;8.70;99.90;;;;;;4994500;28;20196;-75
2021/03/24 09:29:56;;;;;;;41.63;29.97;;;8.70;99.90;;;;;;5004788;28;20675;-74
2021/03/24 09:32:29;;;;;;;47.17;31.23;;;8.70;99.90;;;;;;5015399;28;20248;-75
2021/03/24 09:35:24;;;;;;;45.47;30.53;;;8.70;99.90;;;;;;5016081;28;20240;-74
2021/03/24 09:38:02;;;;;;;44.07;30.87;;;8.70;99.90;;;;;;5004310;28;20201;-74
2021/03/24 09:40:36;;;;;;;44.33;30.13;;;8.80;99.90;;;;;;5014576;28;20190;-74
2021/03/24 09:43:14;;;;;;;48.67;32.07;;;8.80;99.90;;;;;;5012209;28;20283;-74
2021/03/24 09:45:41;;;;;;;49.47;31.17;;;8.90;99.90;;;;;;5019087;28;20194;-75
2021/03/24 09:48:11;;;;;;;45.93;32.03;;;8.90;99.90;;;;;;5016134;28;20213;-74
2021/03/24 09:50:43;;;;;;;45.77;31.00;;;8.80;99.90;;;;;;5011226;28;20197;-74
2021/03/24 09:53:20;;;;;;;49.23;31.97;;;8.80;99.90;;;;;;5016286;28;20198;-74
2021/03/24 09:56:00;;;;;;;46.87;31.47;;;8.90;99.90;;;;;;5014031;28;20232;-74
2021/03/24 09:58:45;;;;;;;44.07;30.63;;;8.90;99.90;;;;;;5013553;28;20728;-74
2021/03/24 10:01:40;;;;;;;46.60;30.73;;;8.90;99.90;;;;;;5011756;28;20205;-74
2021/03/24 10:04:16;;;;;;;42.83;30.23;;;8.90;99.90;;;;;;5019114;28;20741;-74
2021/03/24 10:06:49;;;;;;;46.43;32.63;;;9.00;99.90;;;;;;5015977;28;20701;-74
2021/03/24 10:09:25;;;;;;;46.40;32.13;;;9.00;99.90;;;;;;5020233;28;20197;-74
2021/03/24 10:12:04;;;;;;;47.97;32.03;;;9.10;99.90;;;;;;5015242;28;20243;-74
2021/03/24 10:14:36;;;;;;;46.57;31.17;;;9.10;99.90;;;;;;5014145;28;20271;-74
2021/03/24 10:17:08;;;;;;;47.60;31.83;;;9.20;99.90;;;;;;5017465;28;20193;-74
2021/03/24 10:19:39;;;;;;;42.70;30.40;;;9.20;99.90;;;;;;5017692;28;20236;-74
2021/03/24 10:22:15;;;;;;;44.93;32.00;;;9.20;99.90;;;;;;5016493;28;20197;-74
2021/03/24 10:24:45;;;;;;;44.17;30.50;;;9.30;99.90;;;;;;5016318;28;20193;-74
2021/03/24 10:27:14;;;;;;;39.80;29.07;;;9.30;99.90;;;;;;5018747;28;20205;-74
2021/03/24 10:29:48;;;;;;;40.90;28.70;;;9.30;99.90;;;;;;5012705;28;20201;-74
2021/03/24 10:32:27;;;;;;;41.83;29.30;;;9.40;99.90;;;;;;5018063;28;20204;-74
2021/03/24 10:34:59;;;;;;;40.40;28.57;;;9.40;99.90;;;;;;5007032;28;20599;-72
2021/03/24 10:37:31;;;;;;;39.73;27.87;;;9.40;99.90;;;;;;5007213;28;20225;-72
2021/03/24 10:40:04;;;;;;;38.73;27.60;;;9.60;99.90;;;;;;5004303;28;20191;-74
2021/03/24 10:42:36;;;;;;;37.10;26.07;;;9.60;99.90;;;;;;5013541;28;20217;-74
2021/03/24 10:45:05;;;;;;;39.80;27.50;;;9.70;99.90;;;;;;5013824;28;20190;-74
2021/03/24 10:47:37;;;;;;;35.13;24.50;;;9.70;99.90;;;;;;5019521;28;20205;-74
2021/03/24 10:50:26;;;;;;;32.47;22.27;;;9.80;99.90;;;;;;5018293;28;20193;-73
2021/03/24 10:53:07;;;;;;;30.10;21.37;;;9.80;99.90;;;;;;5020409;28;20659;-74
2021/03/24 10:55:34;;;;;;;29.73;21.47;;;10.00;99.90;;;;;;5021389;28;20201;-74
2021/03/24 10:58:25;;;;;;;28.97;21.87;;;10.00;99.90;;;;;;5021841;28;20217;-74
2021/03/24 11:01:10;;;;;;;29.27;22.13;;;10.10;99.90;;;;;;5021429;28;20186;-74
2021/03/24 11:03:54;;;;;;;29.97;22.20;;;10.10;99.90;;;;;;5012505;28;20216;-74
2021/03/24 11:06:27;;;;;;;32.40;23.77;;;10.20;99.90;;;;;;5017544;28;20271;-74
2021/03/24 11:09:00;;;;;;;32.70;22.33;;;10.40;99.90;;;;;;5017682;28;20225;-73
2021/03/24 11:11:31;;;;;;;28.77;21.97;;;10.70;99.90;;;;;;5016870;28;20652;-74
2021/03/24 11:14:01;;;;;;;28.23;21.50;;;10.70;99.90;;;;;;5016767;28;20261;-74
2021/03/24 11:16:37;;;;;;;30.60;23.27;;;10.70;99.90;;;;;;5019396;28;20656;-74
2021/03/24 11:19:15;;;;;;;29.10;21.10;;;10.70;99.90;;;;;;5020905;28;20228;-74
2021/03/24 11:21:46;;;;;;;30.97;23.10;;;10.80;99.90;;;;;;5030851;28;20251;-74
2021/03/24 11:24:28;;;;;;;32.70;24.17;;;10.70;99.90;;;;;;5019608;28;20703;-75
2021/03/24 11:27:06;;;;;;;30.10;23.67;;;10.70;99.90;;;;;;5001849;28;20205;-74
2021/03/24 11:29:39;;;;;;;36.60;24.63;;;10.70;99.90;;;;;;5009724;28;20197;-74
2021/03/24 11:32:20;;;;;;;31.63;24.17;;;10.60;99.90;;;;;;4993529;28;20656;-75
2021/03/24 11:34:52;;;;;;;34.27;24.13;;;10.60;99.90;;;;;;4990969;28;20213;-74
2021/03/24 11:37:37;;;;;;;30.97;23.73;;;10.60;99.90;;;;;;4991174;28;20607;-74
2021/03/24 11:40:11;;;;;;;36.17;24.03;;;10.60;99.90;;;;;;4991114;28;20249;-74
2021/03/24 11:42:37;;;;;;;33.20;24.10;;;10.60;99.90;;;;;;4990605;28;20229;-74
2021/03/24 11:45:10;;;;;;;32.63;23.93;;;10.60;99.90;;;;;;4994836;28;20237;-73
2021/03/24 11:48:00;;;;;;;30.90;22.80;;;10.70;99.90;;;;;;5010278;28;20252;-74
2021/03/24 11:50:33;;;;;;;28.33;22.80;;;10.70;99.90;;;;;;5010285;28;20244;-73
2021/03/24 11:53:08;;;;;;;29.07;22.80;;;10.80;99.90;;;;;;5010678;28;20233;-74
2021/03/24 11:55:54;;;;;;;30.90;23.70;;;10.90;99.90;;;;;;5001759;28;20565;-73
2021/03/24 11:58:44;;;;;;;32.37;24.67;;;10.90;99.90;;;;;;4987836;28;20280;-74
2021/03/24 12:01:24;;;;;;;29.13;22.93;;;10.90;99.90;;;;;;4990635;28;20209;-73
2021/03/24 12:04:01;;;;;;;27.20;21.73;;;10.90;99.90;;;;;;4990760;28;20225;-74
2021/03/24 12:06:43;;;;;;;32.23;23.70;;;11.10;99.90;;;;;;4990463;28;20537;-74
2021/03/24 12:09:17;;;;;;;32.00;23.90;;;11.20;99.90;;;;;;4990531;28;20201;-74
2021/03/24 12:11:43;;;;;;;32.90;23.80;;;11.40;99.90;;;;;;4990302;28;20203;-73
2021/03/24 12:14:16;;;;;;;31.73;23.63;;;11.70;99.90;;;;;;4990224;28;20237;-73
2021/03/24 12:16:47;;;;;;;30.17;22.90;;;12.00;99.90;;;;;;4990032;28;20556;-73
2021/03/24 12:19:29;;;;;;;30.47;23.23;;;12.20;99.90;;;;;;4989783;28;20245;-73
2021/03/24 12:21:58;;;;;;;29.53;23.93;;;12.30;99.90;;;;;;4990172;28;20682;-73
2021/03/24 12:24:28;;;;;;;28.80;23.43;;;12.40;99.90;;;;;;4989815;28;20691;-73
2021/03/24 12:27:06;;;;;;;31.23;24.20;;;12.50;99.90;;;;;;4990274;28;20213;-74
2021/03/24 12:29:33;;;;;;;33.60;23.10;;;12.70;99.90;;;;;;4989727;28;20213;-73
2021/03/24 12:32:02;;;;;;;28.40;23.23;;;12.90;99.90;;;;;;4990040;28;20210;-73
2021/03/24 12:34:31;;;;;;;27.03;22.00;;;12.90;99.90;;;;;;4990003;28;20214;-73
2021/03/24 12:37:01;;;;;;;28.00;21.87;;;13.00;99.90;;;;;;4989828;28;20206;-73
2021/03/24 12:39:31;;;;;;;29.27;22.80;;;13.10;99.90;;;;;;4989982;28;20257;-73
2021/03/24 12:42:10;;;;;;;27.90;21.43;;;13.30;99.90;;;;;;4992211;28;20198;-73
2021/03/24 12:44:38;;;;;;;25.87;22.10;;;13.30;99.90;;;;;;4989842;28;20208;-73
2021/03/24 12:47:20;;;;;;;27.83;21.40;;;13.50;99.90;;;;;;4989849;28;20206;-73
2021/03/24 12:49:47;;;;;;;25.47;21.23;;;13.50;99.90;;;;;;4989274;28;20210;-73
2021/03/24 12:52:25;;;;;;;30.93;22.27;;;13.50;99.90;;;;;;4989726;28;20244;-73
2021/03/24 12:54:51;;;;;;;24.83;20.57;;;13.50;99.90;;;;;;4989598;28;20265;-72
2021/03/24 12:57:41;;;;;;;23.90;20.80;;;13.60;99.90;;;;;;4989771;28;20230;-73
2021/03/24 13:00:26;;;;;;;25.57;21.53;;;13.80;99.90;;;;;;4989462;28;20198;-73
2021/03/24 13:03:21;;;;;;;27.50;22.27;;;13.90;99.90;;;;;;4989485;28;20226;-73
2021/03/24 13:06:03;;;;;;;28.33;21.63;;;14.10;99.90;;;;;;4989390;28;20210;-72
2021/03/24 13:08:52;;;;;;;24.67;21.50;;;14.30;99.90;;;;;;4989225;28;20602;-73
2021/03/24 13:11:29;;;;;;;28.50;21.93;;;14.20;99.90;;;;;;4989099;28;20205;-73
2021/03/24 13:14:02;;;;;;;28.43;22.20;;;14.50;99.90;;;;;;4994986;28;20194;-70
2021/03/24 13:16:36;;;;;;;26.23;21.30;;;14.60;99.90;;;;;;4997844;28;20227;-69
2021/03/24 13:19:11;;;;;;;25.87;22.70;;;14.60;99.90;;;;;;4998581;28;20226;-73
2021/03/24 13:21:55;;;;;;;25.63;21.43;;;14.70;99.90;;;;;;5000985;28;20335;-74
2021/03/24 13:24:55;;;;;;;26.30;22.80;;;14.60;99.90;;;;;;5003937;28;20289;-73